Terminal Aerodrome Forecast
Issued by NWS

Home | Current Version | Previous Version | Text Only | Print | Product List | Glossary On
Versions: 1 2 3 4 5 6 7 8 9 10 11 12 13 14 15
000
FTUS42 KMLB 242300
TAFSUA
TAF
KSUA 242320Z 2500/2524 18011KT P6SM VCSH SCT035 BKN090
     FM250200 20010G15KT P6SM VCSH SCT020 BKN040 OVC080
     FM250600 25010KT P6SM VCSH SCT030 OVC060
      TEMPO 2506/2508 3SM SHRA BKN020 OVC040
     FM251200 31008KT P6SM BKN060=

USA.gov is the U.S. government's official web portal to all federal, state and local government web resources and services.